Flight Track Log - Related Links

Times and Time Zones

All times are in EDT time to prevent confusion due to time zone crossing. See the ASQ5311 flight status page for this flight to view local times or setup timezone preferences in your user account.

Time Position Orientation Groundspeed Altitude Reporting Facility
EDT Latitude Longitude Course Direction KTS MPH feet Rate Location/Type
Tue 10:13:50 PM 40.8111 -73.8919 10° North 206 237 1,600  Level Boston Center
Tue 10:14:51 PM 40.8639 -73.8800 10° North 207 238 3,400 2,213 Climbing Boston Center
Tue 10:15:52 PM 40.9367 -73.8617 11° North 248 285 6,100 2,902 Climbing Boston Center
Tue 10:16:53 PM 41.0192 -73.8147 23° Northeast 290 334 9,300 2,656 Climbing Boston Center
Tue 10:17:54 PM 41.1006 -73.8175 359° North 293 337 11,500 1,820 Climbing Boston Center
Tue 10:18:55 PM 41.1917 -73.8072 North 345 397 13,000 1,636 Climbing Boston Center
Tue 10:19:55 PM 41.2667 -73.6869 50° Northeast 393 452 14,800 1,884 Climbing Boston Center
Tue 10:20:56 PM 41.3361 -73.5667 52° Northeast 407 468 16,800 2,016 Climbing Boston Center
Tue 10:21:57 PM 41.4072 -73.4450 52° Northeast 415 478 18,900 1,820 Climbing Boston Center
Tue 10:22:58 PM 41.5003 -73.3344 42° Northeast 432 497 20,500 1,623 Climbing Boston Center
Tue 10:23:59 PM 41.5908 -73.2164 44° Northeast 445 512 22,200 1,636 Climbing Boston Center
Tue 10:24:59 PM 41.6839 -73.1003 43° Northeast 454 522 23,800 1,537 Climbing Boston Center
Tue 10:26:00 PM 41.7761 -72.9825 44° Northeast 457 526 25,300 1,328 Climbing Boston Center
Tue 10:27:01 PM 41.8711 -72.8628 43° Northeast 467 537 26,500 1,082 Climbing Boston Center
Tue 10:28:02 PM 41.9678 -72.7386 44° Northeast 478 550 27,500 984 Climbing Boston Center
Tue 10:29:03 PM 42.0664 -72.6108 44° Northeast 493 567 28,500 992 Climbing Boston Center
Tue 10:30:03 PM 42.1667 -72.4822 44° Northeast 501 577 29,500 992 Climbing Boston Center
Tue 10:31:04 PM 42.2675 -72.3500 44° Northeast 509 586 30,500 738 Climbing Boston Center
Tue 10:32:05 PM 42.3697 -72.2175 44° Northeast 512 589 31,000 246 Climbing Boston Center
Tue 10:33:06 PM 42.4728 -72.0786 45° Northeast 525 604 31,000  Level Boston Center
Tue 10:34:07 PM 42.5789 -71.9389 44° Northeast 533 613 31,000  Level Boston Center
Tue 10:35:07 PM 42.7072 -71.7694 44° Northeast 536 617 31,000  Level Boston Center
Tue 10:36:08 PM 42.8144 -71.6264 44° Northeast 539 620 31,000  Level Boston Center
Tue 10:37:09 PM 42.9175 -71.4889 44° Northeast 540 621 31,000  Level Boston Center
Tue 10:38:10 PM 43.0239 -71.3436 45° Northeast 540 621 31,000  Level Boston Center
Tue 10:39:10 PM 43.1339 -71.1953 45° Northeast 538 619 31,000  Level Boston Center
Tue 10:40:11 PM 43.2383 -71.0547 44° Northeast 541 623 31,000 -49 Level Boston Center
Tue 10:41:12 PM 43.3442 -70.9097 45° Northeast 539 620 30,900 -590 Descending Boston Center
Tue 10:42:13 PM 43.4556 -70.7572 45° Northeast 530 610 29,800 -1,041 Descending Boston Center
Tue 10:43:13 PM 43.5536 -70.6217 45° Northeast 502 578 28,800 -1,190 Descending Boston Center
Tue 10:44:14 PM 43.6494 -70.4881 45° Northeast 490 564 27,400 -1,426 Descending Boston Center
Tue 10:45:15 PM 43.7469 -70.3511 45° Northeast 495 570 25,900 -1,475 Descending Boston Center
Tue 10:46:16 PM 43.8469 -70.2108 45° Northeast 504 580 24,400 -1,488 Descending Boston Center
Tue 10:47:16 PM 43.9447 -70.0747 45° Northeast 503 579 22,900 -1,736 Descending Boston Center
Tue 10:48:17 PM 44.0397 -69.9383 46° Northeast 496 571 20,900 -2,311 Descending Boston Center
Tue 10:49:18 PM 44.1364 -69.8039 45° Northeast 459 528 18,200 -2,852 Descending Boston Center
Tue 10:50:19 PM 44.2244 -69.6769 46° Northeast 427 491 15,100 -2,579 Descending Boston Center
Tue 10:51:19 PM 44.2897 -69.5814 46° Northeast 403 464 13,000 -2,083 Descending Boston Center
Tue 10:52:20 PM 44.3533 -69.4594 54° Northeast 390 449 10,900 -1,672 Descending Boston Center
Tue 10:53:21 PM 44.4333 -69.3833 34° Northeast 351 404 9,600 -1,525 Descending Boston Center
Tue 10:54:22 PM 44.5078 -69.3117 34° Northeast 333 383 7,800 -2,164 Descending Boston Center
Tue 10:55:23 PM 44.5914 -69.2306 35° Northeast 312 359 5,200 -1,736 Descending Boston Center
Tue 10:56:23 PM 44.6575 -69.1656 35° Northeast 299 344 4,300 -793 Descending Boston Center
Tue 10:57:24 PM 44.7206 -69.1028 35° Northeast 285 328 3,600 -639 Descending Boston Center
Tue 10:58:25 PM 44.7842 -69.0389 35° Northeast 284 327 3,000 -541 Descending Boston Center
Tue 10:59:26 PM 44.8356 -68.9686 44° Northeast 267 307 2,500 -793 Descending Boston Center
Tue 11:00:26 PM 44.8542 -68.9011 69° East 215 247 1,400 -942 Descending Boston Center
Tue 11:01:27 PM 44.8306 -68.8622 131° Southeast 158 182 600 -541 Descending Boston Center
Tue 11:02:28 PM 44.8067 -68.8256 133° Southeast 150 173 300 -295 Descending Boston Center
Tue 11:04:00 PM 44.8000 -68.8167 50° Northeast  Level FlightAware Approximate

Login

Don't have an account? Register now (free) for customized features, flight alerts, and more!